Time;durP1;ratioP1;P1;durP2;ratioP2;P2;SDS_P1;SDS_P2;PMS_P1;PMS_P2;Temp;Humidity;BMP_temperature;BMP_pressure;BME280_temperature;BME280_humidity;BME280_pressure;Samples;Min_cycle;Max_cycle;Signal;HPM_P1;HPM_P2
2022/05/14 00:01:06;;;;;;;8.23;3.70;;;;;;;13.24;60.55;101973.81;5229070;28;20494;-79
2022/05/14 00:03:40;;;;;;;10.13;3.50;;;;;;;13.65;59.17;101979.56;5223318;28;20028;-79
2022/05/14 00:06:15;;;;;;;10.02;3.33;;;;;;;13.53;59.60;101979.31;5225257;28;20105;-78
2022/05/14 00:08:47;;;;;;;10.73;3.40;;;;;;;13.39;59.80;101984.44;5223322;28;20037;-79
2022/05/14 00:14:09;;;;;;;12.87;5.27;;;;;;;13.48;59.82;101977.84;5221987;28;20026;-78
2022/05/14 00:16:40;;;;;;;13.27;4.03;;;;;;;13.05;61.42;101977.44;5210927;28;20026;-79
2022/05/14 00:19:12;;;;;;;14.07;3.60;;;;;;;12.95;62.00;101982.31;5220475;28;20029;-79
2022/05/14 00:21:44;;;;;;;11.30;3.60;;;;;;;13.05;61.74;101980.06;5215698;28;20038;-79
2022/05/14 00:24:16;;;;;;;13.60;3.77;;;;;;;13.33;61.03;101983.00;5221599;28;20065;-79
2022/05/14 00:26:48;;;;;;;13.70;4.00;;;;;;;13.32;60.82;101970.78;5217332;28;20395;-79
2022/05/14 00:29:19;;;;;;;16.63;4.90;;;;;;;13.26;61.45;101977.22;5216881;28;20038;-79
2022/05/14 00:31:50;;;;;;;11.10;5.07;;;;;;;13.13;61.84;101960.38;5230306;28;20369;-80
2022/05/14 00:34:21;;;;;;;15.10;5.43;;;;;;;12.93;62.41;101955.22;5217210;28;20029;-79
2022/05/14 00:36:53;;;;;;;16.80;5.63;;;;;;;13.20;61.81;101961.75;5220515;28;20026;-79
2022/05/14 00:39:24;;;;;;;11.63;4.40;;;;;;;12.95;62.47;101952.56;5228704;28;20025;-79
2022/05/14 00:41:55;;;;;;;13.60;4.53;;;;;;;13.10;62.07;101963.16;5225655;28;20045;-79
2022/05/14 00:44:26;;;;;;;11.80;4.30;;;;;;;13.00;62.18;101961.03;5226766;28;20049;-79
2022/05/14 00:47:00;;;;;;;12.23;4.00;;;;;;;12.91;62.93;101965.00;5229725;28;20087;-79
2022/05/14 00:49:33;;;;;;;9.60;4.07;;;;;;;12.97;62.28;101962.97;5228665;28;20037;-79
2022/05/14 00:52:11;;;;;;;17.20;4.00;;;;;;;12.77;63.31;101962.22;5228017;28;20482;-79
2022/05/14 00:55:00;;;;;;;13.77;4.40;;;;;;;12.86;62.68;101956.50;5231045;28;20033;-79
2022/05/14 00:57:35;;;;;;;16.77;4.87;;;;;;;12.89;62.59;101972.13;5209345;28;20481;-79
2022/05/14 01:00:11;;;;;;;10.63;4.20;;;;;;;12.92;62.50;101968.47;5213784;28;20025;-79
2022/05/14 01:02:42;;;;;;;11.17;3.87;;;;;;;12.89;62.10;101963.38;5216106;28;20068;-79
2022/05/14 01:05:17;;;;;;;11.43;5.07;;;;;;;12.93;62.16;101963.13;5224412;28;20014;-79
2022/05/14 01:07:50;;;;;;;13.00;4.57;;;;;;;12.69;62.68;101973.13;5233249;28;20036;-78
2022/05/14 01:10:26;;;;;;;14.67;4.40;;;;;;;12.86;62.01;101958.28;5232684;28;20447;-78
2022/05/14 01:13:01;;;;;;;12.30;4.50;;;;;;;12.87;62.02;101963.44;5234867;28;20485;-79
2022/05/14 01:15:52;;;;;;;11.37;4.27;;;;;;;12.73;62.44;101966.78;5229876;28;20021;-79
2022/05/14 01:18:27;;;;;;;9.60;3.33;;;;;;;12.85;61.59;101965.31;5233469;28;20500;-78
2022/05/14 01:21:00;;;;;;;;;;;;;;;13.00;60.14;101962.81;5221297;28;20083;-79
2022/05/14 01:26:47;;;;;;;6.73;2.93;;;;;;;12.69;61.59;101959.97;5214060;28;20038;-79
2022/05/14 01:29:21;;;;;;;7.53;3.23;;;;;;;12.34;62.78;101959.06;5214114;28;20036;-79
2022/05/14 01:31:55;;;;;;;8.20;3.75;;;;;;;12.20;63.14;101967.63;5224002;28;20034;-79
2022/05/14 01:34:31;;;;;;;9.48;2.80;;;;;;;12.37;62.55;101958.06;5215908;28;20025;-78
2022/05/14 01:37:03;;;;;;;8.03;2.97;;;;;;;12.47;61.87;101955.81;5222275;28;20084;-79
2022/05/14 01:39:35;;;;;;;14.20;4.33;;;;;;;12.31;62.14;101950.47;5228698;28;20030;-78
2022/05/14 01:42:06;;;;;;;9.97;2.83;;;;;;;12.41;61.58;101950.88;5212465;28;20033;-79
2022/05/14 01:44:37;;;;;;;10.43;3.03;;;;;;;11.99;62.73;101940.59;5214593;28;20114;-77
2022/05/14 01:47:10;;;;;;;10.67;3.30;;;;;;;12.27;62.14;101962.91;5222640;28;20037;-78
2022/05/14 01:49:41;;;;;;;7.87;2.67;;;;;;;12.34;61.31;101959.06;5234023;28;20029;-78
2022/05/14 01:52:12;;;;;;;17.90;3.40;;;;;;;12.35;61.14;101957.28;5232389;28;20067;-77
2022/05/14 01:54:44;;;;;;;6.00;3.17;;;;;;;12.33;61.09;101965.25;5220096;28;20021;-78
2022/05/14 01:57:15;;;;;;;16.37;3.47;;;;;;;11.96;62.47;101967.84;5231961;28;20048;-78
2022/05/14 01:59:46;;;;;;;8.57;3.03;;;;;;;12.16;61.49;101967.84;5234490;28;20029;-78
2022/05/14 02:02:17;;;;;;;11.53;3.37;;;;;;;11.98;62.02;101955.50;5231654;28;20431;-78
2022/05/14 02:04:49;;;;;;;11.27;3.50;;;;;;;11.89;62.17;101962.94;5231330;28;20502;-78
2022/05/14 02:07:20;;;;;;;13.37;2.77;;;;;;;12.03;61.77;101964.91;5220751;28;20626;-78
2022/05/14 02:09:51;;;;;;;15.27;3.00;;;;;;;12.10;61.40;101967.22;5222632;28;20408;-78
2022/05/14 02:12:23;;;;;;;11.57;3.73;;;;;;;12.03;61.39;101952.66;5220288;28;20500;-77
2022/05/14 02:14:54;;;;;;;10.47;3.83;;;;;;;11.85;61.76;101954.41;5231175;28;20052;-78
2022/05/14 02:17:25;;;;;;;7.87;3.00;;;;;;;11.86;61.98;101971.84;5236200;28;20057;-78
2022/05/14 02:19:56;;;;;;;9.73;3.13;;;;;;;11.93;61.76;101972.38;5234177;28;20094;-79
2022/05/14 02:22:28;;;;;;;9.93;2.90;;;;;;;11.91;61.93;101963.72;5220744;28;20034;-78
2022/05/14 02:24:59;;;;;;;7.00;3.17;;;;;;;11.81;61.83;101940.56;5214735;28;20029;-78
2022/05/14 02:27:30;;;;;;;9.40;3.10;;;;;;;11.85;62.15;101963.09;5234036;28;20400;-78
2022/05/14 02:30:03;;;;;;;12.33;3.93;;;;;;;11.92;61.55;101970.69;5213752;28;20037;-78
2022/05/14 02:32:34;;;;;;;8.07;2.57;;;;;;;11.83;61.96;101967.56;5211026;28;20121;-77
2022/05/14 02:35:06;;;;;;;10.47;2.90;;;;;;;11.79;61.87;101970.41;5223456;28;20025;-78
2022/05/14 02:37:37;;;;;;;8.40;2.83;;;;;;;11.79;62.10;101979.16;5232297;28;20021;-78
2022/05/14 02:40:09;;;;;;;9.13;2.73;;;;;;;11.86;61.96;101977.94;5231825;28;20029;-78
2022/05/14 02:42:40;;;;;;;9.67;3.33;;;;;;;11.75;62.02;101974.97;5233436;28;20017;-78
2022/05/14 02:45:12;;;;;;;5.90;2.50;;;;;;;11.66;62.37;101975.41;5229302;28;20038;-78
2022/05/14 02:47:43;;;;;;;6.60;2.97;;;;;;;11.69;62.39;101977.88;5211694;28;20048;-78
2022/05/14 02:50:16;;;;;;;10.40;3.30;;;;;;;11.61;62.65;101979.06;5212149;28;20393;-77
2022/05/14 02:52:47;;;;;;;8.70;3.63;;;;;;;11.66;62.29;101975.41;5210871;28;20026;-78
2022/05/14 02:55:19;;;;;;;9.70;3.33;;;;;;;11.54;62.50;101971.53;5215475;28;20039;-78
2022/05/14 02:57:51;;;;;;;10.30;2.83;;;;;;;11.61;62.44;101979.06;5233183;28;20040;-78
2022/05/14 03:00:22;;;;;;;11.83;3.40;;;;;;;11.54;62.86;101980.28;5214317;28;20038;-78
2022/05/14 03:02:54;;;;;;;11.07;3.10;;;;;;;11.43;63.23;101975.50;5212610;28;20092;-79
2022/05/14 03:05:27;;;;;;;9.37;3.37;;;;;;;11.43;62.96;101969.44;5227189;28;20120;-78
2022/05/14 03:07:58;;;;;;;10.27;3.47;;;;;;;11.36;63.32;101969.69;5209617;28;20022;-79
2022/05/14 03:10:29;;;;;;;8.13;2.87;;;;;;;11.39;63.15;101976.59;5222923;28;20045;-78
2022/05/14 03:13:03;;;;;;;9.57;3.17;;;;;;;11.35;63.27;101991.59;5224827;28;20030;-78
2022/05/14 03:15:34;;;;;;;7.67;2.50;;;;;;;11.46;62.96;101977.16;5219357;28;20021;-78
2022/05/14 03:18:05;;;;;;;11.10;3.30;;;;;;;11.29;63.58;101972.69;5232698;28;20021;-78
2022/05/14 03:20:37;;;;;;;10.87;2.70;;;;;;;11.25;63.51;101967.56;5212567;28;20053;-78
2022/05/14 03:23:09;;;;;;;13.13;4.00;;;;;;;11.36;63.37;101969.69;5210275;28;20022;-78
2022/05/14 03:25:40;;;;;;;7.33;2.83;;;;;;;11.25;63.69;101975.44;5214809;28;20102;-78
2022/05/14 03:28:11;;;;;;;7.20;2.80;;;;;;;11.28;63.72;101970.97;5210065;28;20034;-78
2022/05/14 03:30:42;;;;;;;10.10;3.80;;;;;;;11.23;63.74;101974.66;5211472;28;20026;-78
2022/05/14 03:33:14;;;;;;;11.37;3.33;;;;;;;11.25;63.73;101967.56;5224318;28;20032;-78
2022/05/14 03:35:45;;;;;;;9.30;2.73;;;;;;;11.22;63.75;101982.59;5216819;28;20033;-79
2022/05/14 03:38:16;;;;;;;7.33;2.97;;;;;;;11.11;63.73;101978.69;5223462;28;20365;-78
2022/05/14 03:40:47;;;;;;;7.43;3.10;;;;;;;11.07;64.28;101974.47;5231641;28;20021;-78
2022/05/14 03:43:19;;;;;;;8.80;3.23;;;;;;;11.12;64.02;101969.03;5222265;28;20037;-78
2022/05/14 03:45:50;;;;;;;10.83;3.13;;;;;;;11.07;64.40;101969.22;5211544;28;20026;-78
2022/05/14 03:48:21;;;;;;;14.17;3.80;;;;;;;11.11;64.20;101976.06;5223348;28;20033;-79
2022/05/14 03:50:52;;;;;;;15.00;3.50;;;;;;;11.07;64.41;101979.72;5214775;28;20079;-79
2022/05/14 03:53:24;;;;;;;7.67;3.53;;;;;;;11.08;64.19;101975.34;5212163;28;20025;-78
2022/05/14 03:55:56;;;;;;;11.43;3.57;;;;;;;11.06;64.45;101980.66;5212521;28;20069;-78
2022/05/14 03:58:27;;;;;;;8.53;3.30;;;;;;;11.04;64.60;101976.38;5219750;28;20040;-78
2022/05/14 04:00:58;;;;;;;13.93;3.03;;;;;;;10.98;64.77;101970.47;5212145;28;20473;-77
2022/05/14 04:03:32;;;;;;;11.30;3.73;;;;;;;10.92;65.60;101981.25;5211898;28;20030;-78
2022/05/14 04:06:04;;;;;;;6.23;2.90;;;;;;;10.98;65.22;101975.72;5212524;28;20523;-77
2022/05/14 04:08:36;;;;;;;11.87;4.30;;;;;;;10.85;65.67;101983.28;5221084;28;20468;-78
2022/05/14 04:11:08;;;;;;;7.90;3.27;;;;;;;10.81;65.69;101972.97;5215854;28;20100;-78
2022/05/14 04:13:39;;;;;;;10.43;3.40;;;;;;;10.74;66.03;101973.25;5232212;28;20460;-77
2022/05/14 04:16:11;;;;;;;10.50;3.93;;;;;;;10.81;66.04;101973.84;5230341;28;20044;-79
2022/05/14 04:18:43;;;;;;;14.13;4.33;;;;;;;10.81;66.35;101981.69;5221743;28;20136;-78
2022/05/14 04:21:14;;;;;;;10.63;4.20;;;;;;;10.71;66.76;101988.25;5229429;28;20116;-78
2022/05/14 04:23:45;;;;;;;8.23;3.10;;;;;;;10.84;66.25;101994.66;5211179;28;20076;-75
2022/05/14 04:26:17;;;;;;;8.30;3.70;;;;;;;10.75;66.69;101984.59;5212186;28;20109;-75
2022/05/14 04:28:48;;;;;;;9.80;3.53;;;;;;;10.64;67.73;101985.91;5223557;28;20029;-77
2022/05/14 04:31:21;;;;;;;9.23;3.10;;;;;;;10.70;67.22;101992.63;5227245;28;20052;-76
2022/05/14 04:33:52;;;;;;;9.23;3.40;;;;;;;10.74;67.59;101988.09;5223348;28;20026;-72
2022/05/14 04:36:23;;;;;;;8.23;3.73;;;;;;;10.72;67.63;101985.56;5213783;28;20049;-76
2022/05/14 04:38:55;;;;;;;13.50;3.40;;;;;;;10.75;67.66;101992.44;5227616;28;20630;-76
2022/05/14 04:41:30;;;;;;;13.33;4.17;;;;;;;10.77;67.40;101987.97;5206583;28;20053;-79
2022/05/14 04:44:01;;;;;;;10.83;4.63;;;;;;;10.71;68.35;101989.09;5225385;28;20462;-80
2022/05/14 04:46:35;;;;;;;9.33;3.30;;;;;;;10.71;68.06;101990.88;5225016;28;20100;-81
2022/05/14 04:49:06;;;;;;;14.07;4.05;;;;;;;10.63;68.70;101983.31;5227691;28;20053;-79
2022/05/14 04:51:38;;;;;;;9.97;3.20;;;;;;;10.65;68.65;101992.81;5217755;28;20674;-79
2022/05/14 04:54:09;;;;;;;12.70;4.37;;;;;;;10.71;68.78;102006.59;5226436;28;20022;-80
2022/05/14 04:56:41;;;;;;;12.47;3.90;;;;;;;10.68;68.98;102002.34;5223570;28;20070;-80
2022/05/14 04:59:13;;;;;;;14.03;5.03;;;;;;;10.62;69.36;101998.19;5220630;28;20244;-80
2022/05/14 05:04:35;;;;;;;13.33;4.73;;;;;;;10.61;69.94;101996.47;5225106;28;20034;-78
2022/05/14 05:07:06;;;;;;;10.27;4.17;;;;;;;10.58;70.38;102001.00;5223220;28;20025;-79
2022/05/14 05:09:37;;;;;;;11.97;4.77;;;;;;;10.57;70.13;101997.53;5224689;28;20026;-77
2022/05/14 05:12:09;;;;;;;11.33;4.77;;;;;;;10.77;69.95;102008.94;5224628;28;20080;-80
2022/05/14 05:14:41;;;;;;;14.67;5.73;;;;;;;10.70;70.56;102010.97;5223075;28;20034;-80
2022/05/14 05:17:12;;;;;;;11.00;4.53;;;;;;;10.73;70.65;102008.25;5221892;28;20057;-81
2022/05/14 05:19:44;;;;;;;11.77;4.90;;;;;;;10.72;70.48;101998.66;5223262;28;20025;-80
2022/05/14 05:22:15;;;;;;;9.37;4.30;;;;;;;10.68;71.20;102006.72;5219333;28;20057;-78
2022/05/14 05:24:46;;;;;;;13.93;4.90;;;;;;;10.74;71.41;102011.69;5223786;28;20443;-80
2022/05/14 05:27:18;;;;;;;14.47;5.07;;;;;;;10.74;71.77;102014.31;5222235;28;20084;-79
2022/05/14 05:29:49;;;;;;;12.10;4.73;;;;;;;10.79;71.84;102014.97;5228759;28;20056;-81
2022/05/14 05:32:20;;;;;;;12.17;5.30;;;;;;;10.71;71.77;102002.22;5224454;28;20042;-81
2022/05/14 05:34:52;;;;;;;16.50;6.07;;;;;;;10.88;71.91;102016.34;5213900;28;20033;-74
2022/05/14 05:37:23;;;;;;;15.70;6.60;;;;;;;10.88;72.46;102027.69;5224276;28;20032;-81
2022/05/14 05:39:55;;;;;;;21.53;6.30;;;;;;;10.88;72.70;102027.69;5219932;28;20540;-81
2022/05/14 05:42:26;;;;;;;14.70;6.03;;;;;;;10.96;72.58;102031.78;5215076;28;20072;-81
2022/05/14 05:44:58;;;;;;;18.43;7.10;;;;;;;10.93;73.10;102021.38;5213175;28;20722;-80
2022/05/14 05:47:29;;;;;;;20.97;7.70;;;;;;;10.98;73.50;102035.16;5222790;28;20037;-81
2022/05/14 05:50:01;;;;;;;13.70;6.10;;;;;;;11.01;73.73;102032.44;5219156;28;20063;-81
2022/05/14 05:52:32;;;;;;;16.53;7.17;;;;;;;11.07;73.58;102028.66;5233592;28;20030;-78
2022/05/14 05:57:54;;;;;;;15.73;6.73;;;;;;;11.13;74.11;102031.03;5224777;28;20033;-80
2022/05/14 06:00:28;;;;;;;14.97;7.43;;;;;;;11.20;74.68;102039.50;5220735;28;20029;-80
2022/05/14 06:02:59;;;;;;;15.10;7.55;;;;;;;11.21;74.96;102033.31;5233749;28;20033;-80
2022/05/14 06:05:31;;;;;;;17.03;7.40;;;;;;;11.23;74.96;102048.09;5229459;28;20069;-81
2022/05/14 06:08:09;;;;;;;18.50;7.27;;;;;;;11.31;75.07;102042.47;5224242;28;20105;-81
2022/05/14 06:10:44;;;;;;;17.80;7.43;;;;;;;11.23;75.50;102028.88;5219871;28;20498;-81
2022/05/14 06:13:15;;;;;;;19.53;7.60;;;;;;;11.38;76.11;102035.19;5212284;28;20428;-80
2022/05/14 06:15:46;;;;;;;16.40;8.33;;;;;;;11.46;75.48;102045.38;5217463;28;20026;-80
2022/05/14 06:18:18;;;;;;;19.03;8.60;;;;;;;11.48;75.93;102051.41;5219254;28;20026;-80
2022/05/14 06:20:49;;;;;;;22.17;8.20;;;;;;;11.50;75.85;102039.06;5215712;28;20095;-80
2022/05/14 06:23:20;;;;;;;20.17;7.93;;;;;;;11.59;75.66;102048.31;5227922;28;20026;-80
2022/05/14 06:25:52;;;;;;;21.20;8.27;;;;;;;11.60;76.45;102035.13;5215239;28;20435;-73
2022/05/14 06:28:23;;;;;;;24.17;9.07;;;;;;;11.66;76.78;102043.63;5218797;28;20029;-79
2022/05/14 06:30:58;;;;;;;24.23;7.80;;;;;;;11.76;76.48;102049.31;5214456;28;20030;-79
2022/05/14 06:33:30;;;;;;;23.20;8.67;;;;;;;11.77;76.01;102043.97;5217376;28;20025;-80
2022/05/14 06:36:02;;;;;;;18.77;8.57;;;;;;;11.89;76.97;102060.06;5222371;28;20723;-82
2022/05/14 06:38:33;;;;;;;23.53;8.97;;;;;;;11.93;76.06;102061.66;5222879;28;20128;-82
2022/05/14 06:41:06;;;;;;;22.70;9.20;;;;;;;12.00;76.88;102067.47;5219961;28;20045;-82
2022/05/14 06:43:38;;;;;;;21.80;8.20;;;;;;;12.12;77.06;102064.31;5222373;28;20033;-82
2022/05/14 06:46:10;;;;;;;19.93;8.63;;;;;;;12.21;75.85;102065.66;5228465;28;20354;-82
2022/05/14 06:48:41;;;;;;;25.10;9.33;;;;;;;12.31;75.76;102072.16;5225203;28;20615;-81
2022/05/14 06:51:23;;;;;;;24.63;10.17;;;;;;;12.38;75.61;102069.22;5222848;28;20022;-75
2022/05/14 06:54:00;;;;;;;23.53;9.30;;;;;;;12.46;75.35;102069.75;5221149;28;20485;-75
2022/05/14 06:56:33;;;;;;;24.83;9.90;;;;;;;12.63;75.22;102066.28;5218365;28;20038;-77
2022/05/14 06:59:04;;;;;;;17.47;8.10;;;;;;;12.73;75.55;102060.56;5218382;28;20030;-79
2022/05/14 07:01:38;;;;;;;23.03;11.07;;;;;;;12.95;74.57;102063.81;5221488;28;20061;-80
2022/05/14 07:07:05;;;;;;;22.13;9.57;;;;;;;13.54;72.67;102065.22;5222126;28;21396;-76
2022/05/14 07:09:37;;;;;;;23.40;8.30;;;;;;;13.77;71.40;102068.41;5226818;28;20036;-77
2022/05/14 07:12:09;;;;;;;17.73;8.17;;;;;;;13.94;69.55;102053.50;5218183;28;20496;-77
2022/05/14 07:14:43;;;;;;;18.30;8.90;;;;;;;14.25;69.61;102059.69;5212419;28;20030;-78
2022/05/14 07:17:16;;;;;;;18.40;8.35;;;;;;;14.62;67.92;102066.44;5220303;28;20038;-79
2022/05/14 07:19:49;;;;;;;20.40;9.83;;;;;;;15.00;66.72;102066.03;5212305;28;20021;-79
2022/05/14 07:22:20;;;;;;;18.03;8.43;;;;;;;15.54;64.71;102070.78;5222269;28;20061;-79
2022/05/14 07:24:52;;;;;;;20.70;8.47;;;;;;;15.90;63.34;102066.78;5232623;28;20056;-85
2022/05/14 07:27:23;;;;;;;21.97;9.20;;;;;;;16.39;61.72;102067.25;5228876;28;20084;-79
2022/05/14 07:29:54;;;;;;;18.27;8.37;;;;;;;16.87;59.62;102059.75;5220561;28;20052;-76
2022/05/14 07:32:26;;;;;;;21.63;8.27;;;;;;;17.44;57.94;102056.84;5228244;28;20424;-76
2022/05/14 07:34:57;;;;;;;18.90;7.63;;;;;;;18.09;57.23;102061.97;5216126;28;20022;-76
2022/05/14 07:37:35;;;;;;;19.30;8.07;;;;;;;18.65;56.10;102067.66;5228078;28;20029;-75
2022/05/14 07:40:10;;;;;;;18.47;7.00;;;;;;;19.52;52.94;102060.22;5228640;28;20664;-79
2022/05/14 07:42:46;;;;;;;18.33;7.93;;;;;;;19.62;51.61;102061.19;5225688;28;20484;-79
2022/05/14 07:45:23;;;;;;;14.17;7.03;;;;;;;20.14;50.83;102067.78;5212949;28;20040;-76
2022/05/14 07:47:56;;;;;;;20.03;7.20;;;;;;;20.36;50.01;102058.00;5210321;28;20389;-76
2022/05/14 07:50:28;;;;;;;23.83;7.38;;;;;;;20.59;48.73;102060.56;5222985;28;20034;-76
2022/05/14 07:52:59;;;;;;;18.40;7.75;;;;;;;21.46;47.22;102065.69;5224075;28;20075;-76
2022/05/14 07:55:33;;;;;;;21.38;7.47;;;;;;;21.31;47.12;102067.91;5223293;28;20109;-75
2022/05/14 07:58:04;;;;;;;15.95;7.55;;;;;;;21.70;44.69;102056.50;5219974;28;20022;-75
2022/05/14 08:00:36;;;;;;;19.92;7.68;;;;;;;22.11;44.37;102059.97;5217421;28;20087;-75
2022/05/14 08:03:08;;;;;;;23.42;7.65;;;;;;;22.39;43.54;102055.78;5217803;28;20044;-75
2022/05/14 08:05:39;;;;;;;18.35;8.00;;;;;;;22.89;42.90;102072.59;5223757;28;20034;-75
2022/05/14 08:08:11;;;;;;;19.40;6.95;;;;;;;23.38;42.03;102055.56;5215021;28;20076;-75
2022/05/14 08:10:43;;;;;;;16.10;6.60;;;;;;;23.41;40.58;102074.84;5211125;28;20037;-75
2022/05/14 08:13:20;;;;;;;21.50;7.38;;;;;;;23.89;41.00;102069.41;5214753;28;20030;-75
2022/05/14 08:15:52;;;;;;;18.13;7.53;;;;;;;24.12;39.83;102062.75;5231632;28;20108;-75
2022/05/14 08:18:23;;;;;;;19.02;7.72;;;;;;;24.52;38.70;102068.66;5221266;28;20698;-79
2022/05/14 08:20:55;;;;;;;14.73;7.03;;;;;;;24.20;38.45;102072.72;5223816;28;20117;-77
2022/05/14 08:26:16;;;;;;;17.92;7.50;;;;;;;25.01;37.73;102060.13;5209079;28;20417;-79
2022/05/14 08:28:47;;;;;;;15.57;7.22;;;;;;;25.06;36.89;102059.66;5210443;28;20034;-79
2022/05/14 08:31:19;;;;;;;21.75;9.43;;;;;;;25.79;36.76;102059.28;5209712;28;20030;-78
2022/05/14 08:33:50;;;;;;;18.02;6.78;;;;;;;25.97;35.82;102069.88;5209984;28;20052;-80
2022/05/14 08:36:22;;;;;;;16.88;7.00;;;;;;;26.30;35.11;102070.91;5209552;28;20038;-79
2022/05/14 08:38:54;;;;;;;18.23;6.68;;;;;;;26.89;34.48;102063.66;5210788;28;20037;-79
2022/05/14 08:41:26;;;;;;;17.02;6.50;;;;;;;26.72;34.15;102068.22;5210909;28;20669;-79
2022/05/14 08:44:02;;;;;;;20.85;7.13;;;;;;;26.73;34.29;102076.13;5209303;28;20036;-79
2022/05/14 08:46:37;;;;;;;15.88;6.65;;;;;;;27.37;33.40;102065.56;5210603;28;20031;-79
2022/05/14 08:49:33;;;;;;;16.45;7.30;;;;;;;28.08;34.28;102066.50;5210995;28;20054;-79
2022/05/14 08:52:09;;;;;;;16.48;6.78;;;;;;;27.36;33.39;102069.25;5209533;28;20116;-79
2022/05/14 08:54:41;;;;;;;15.65;6.65;;;;;;;28.31;31.82;102077.22;5211570;28;20053;-79
2022/05/14 08:57:15;;;;;;;20.50;7.68;;;;;;;27.51;32.24;102069.31;5208419;28;20032;-79
2022/05/14 08:59:55;;;;;;;21.30;6.22;;;;;;;28.17;31.76;102067.28;5211161;28;20029;-79
2022/05/14 09:02:49;;;;;;;19.15;6.15;;;;;;;29.35;31.87;102057.84;5211313;28;20110;-80
2022/05/14 09:05:34;;;;;;;16.13;5.97;;;;;;;29.27;30.04;102064.16;5209308;28;20057;-80
2022/05/14 09:08:06;;;;;;;15.77;6.47;;;;;;;29.27;29.40;102057.97;5210696;28;20473;-78
2022/05/14 09:10:42;;;;;;;18.93;6.67;;;;;;;29.73;29.40;102056.00;5208411;28;20053;-80
2022/05/14 09:13:21;;;;;;;16.42;5.85;;;;;;;29.03;29.76;102076.13;5210975;28;20182;-80
2022/05/14 09:15:59;;;;;;;13.23;5.53;;;;;;;29.92;29.16;102071.56;5208454;28;20037;-79
2022/05/14 09:18:44;;;;;;;15.77;5.13;;;;;;;30.24;29.47;102065.00;5210694;28;20026;-80
2022/05/14 09:21:19;;;;;;;17.10;6.05;;;;;;;29.09;28.75;102068.13;5211170;28;20116;-80
2022/05/14 09:24:03;;;;;;;18.63;5.68;;;;;;;30.48;28.16;102068.31;5214332;28;20400;-80
2022/05/14 09:26:38;;;;;;;19.58;7.05;;;;;;;30.17;27.98;102073.88;5218435;28;20032;-79
2022/05/14 09:29:28;;;;;;;15.32;6.53;;;;;;;30.74;28.17;102067.66;5213431;28;20026;-80
2022/05/14 09:32:12;;;;;;;13.20;5.13;;;;;;;30.61;27.64;102062.19;5214148;28;20044;-80
2022/05/14 09:34:43;;;;;;;;;;;;;;;32.07;27.84;102055.91;5212961;28;20477;-80
2022/05/14 09:37:20;;;;;;;16.60;4.57;;;;;;;31.90;26.35;102062.72;5215026;28;19918;-80
2022/05/14 09:39:59;;;;;;;23.77;5.63;;;;;;;31.88;26.18;102066.50;5213660;28;20296;-79
2022/05/14 09:42:43;;;;;;;13.30;5.55;;;;;;;31.93;25.77;102065.84;5214167;28;20025;-79
2022/05/14 09:45:33;;;;;;;14.18;5.35;;;;;;;32.20;25.83;102046.94;5212754;28;20022;-79
2022/05/14 09:48:17;;;;;;;12.00;4.57;;;;;;;32.17;24.78;102046.53;5212618;28;20030;-79
2022/05/14 09:50:56;;;;;;;17.58;5.00;;;;;;;32.42;24.92;102062.13;5213279;28;20022;-80
2022/05/14 09:53:31;;;;;;;15.40;4.47;;;;;;;31.39;24.70;102063.84;5213646;28;20034;-80
2022/05/14 09:56:30;;;;;;;15.02;5.53;;;;;;;32.38;24.84;102064.41;5212211;28;20029;-80
2022/05/14 09:59:11;;;;;;;13.93;5.25;;;;;;;31.82;24.24;102056.47;5212051;28;20025;-80
2022/05/14 10:01:51;;;;;;;11.70;5.10;;;;;;;31.81;24.82;102049.38;5213778;28;20129;-80
2022/05/14 10:04:42;;;;;;;12.80;4.82;;;;;;;31.62;25.34;102051.88;5216965;28;20037;-76
2022/05/14 10:07:42;;;;;;;14.55;4.72;;;;;;;30.53;26.52;102046.94;5213127;28;20049;-80
2022/05/14 10:10:38;;;;;;;16.13;5.45;;;;;;;29.68;27.00;102053.88;5213191;28;20118;-80
2022/05/14 10:13:28;;;;;;;12.95;5.18;;;;;;;29.67;27.65;102058.44;5211930;28;20401;-80
2022/05/14 10:16:15;;;;;;;17.20;5.18;;;;;;;30.32;26.88;102059.47;5212205;28;20033;-78
2022/05/14 10:19:22;;;;;;;16.50;5.95;;;;;;;31.14;26.42;102058.97;5221518;28;20045;-77
2022/05/14 10:22:09;;;;;;;17.58;5.50;;;;;;;31.71;25.34;102057.94;5214964;28;20480;-77
2022/05/14 10:28:19;;;;;;;18.67;5.75;;;;;;;32.27;24.53;102059.66;5226262;28;20128;-74
2022/05/14 10:31:04;;;;;;;16.58;5.65;;;;;;;31.88;24.77;102054.81;5223360;28;20034;-75
2022/05/14 10:33:35;;;;;;;19.00;5.90;;;;;;;31.30;24.83;102045.28;5211708;28;20026;-74
2022/05/14 10:36:22;;;;;;;17.27;6.15;;;;;;;31.03;25.39;102054.94;5216333;28;20200;-74
2022/05/14 10:38:59;;;;;;;19.52;5.97;;;;;;;30.14;25.57;102047.25;5229121;28;20395;-78
2022/05/14 10:41:37;;;;;;;13.00;5.32;;;;;;;30.38;24.87;102064.09;5233460;28;20030;-78
2022/05/14 10:44:15;;;;;;;14.27;5.70;;;;;;;30.04;25.31;102057.56;5232725;28;20393;-77
2022/05/14 10:46:47;;;;;;;14.57;5.53;;;;;;;29.39;26.01;102045.66;5233364;28;20036;-78
2022/05/14 10:49:42;;;;;;;16.55;4.80;;;;;;;29.83;25.63;102046.56;5231417;28;20029;-77
2022/05/14 10:52:16;;;;;;;12.63;4.53;;;;;;;30.56;24.83;102054.66;5232882;28;20040;-78
2022/05/14 10:54:47;;;;;;;12.40;4.25;;;;;;;30.64;24.44;102057.22;5233638;28;20072;-78
2022/05/14 10:57:18;;;;;;;16.02;5.15;;;;;;;31.06;24.16;102053.72;5232761;28;20954;-78
2022/05/14 10:59:57;;;;;;;11.38;5.00;;;;;;;31.78;24.02;102057.94;5231398;28;20029;-78
2022/05/14 11:02:32;;;;;;;16.80;5.53;;;;;;;31.33;24.27;102056.53;5232287;28;20559;-78
2022/05/14 11:05:06;;;;;;;14.45;5.13;;;;;;;30.97;23.50;102044.09;5235223;28;20393;-79
2022/05/14 11:07:42;;;;;;;16.13;4.53;;;;;;;30.47;24.68;102054.00;5232725;28;20064;-77
2022/05/14 11:10:31;;;;;;;12.18;4.03;;;;;;;30.17;24.36;102054.13;5232671;28;20045;-78
2022/05/14 11:13:24;;;;;;;17.33;4.53;;;;;;;31.12;24.64;102054.78;5209240;28;20042;-78
2022/05/14 11:16:03;;;;;;;12.68;4.90;;;;;;;31.07;23.93;102057.28;5211664;28;20091;-80
2022/05/14 11:18:52;;;;;;;10.85;4.43;;;;;;;31.20;24.31;102056.47;5219839;28;20029;-79
2022/05/14 11:21:46;;;;;;;14.40;4.85;;;;;;;31.14;23.87;102050.84;5242895;28;20099;-78
2022/05/14 11:24:17;;;;;;;19.23;5.30;;;;;;;29.53;24.01;102049.34;5221801;28;20030;-78
2022/05/14 11:26:53;;;;;;;13.05;5.07;;;;;;;31.01;23.08;102050.78;5225385;28;20029;-79
2022/05/14 11:29:27;;;;;;;12.27;5.00;;;;;;;30.73;23.85;102048.94;5210397;28;20026;-77
2022/05/14 11:32:07;;;;;;;14.13;5.00;;;;;;;30.90;23.33;102044.06;5230238;28;20037;-77
2022/05/14 11:34:51;;;;;;;18.20;5.25;;;;;;;30.13;24.29;102044.72;5219476;28;20105;-74
2022/05/14 11:37:28;;;;;;;14.85;6.05;;;;;;;30.05;25.09;102048.41;5217549;28;20033;-77
2022/05/14 11:40:21;;;;;;;17.83;5.82;;;;;;;30.21;25.34;102052.72;5211671;28;20033;-76
2022/05/14 11:43:09;;;;;;;20.70;6.47;;;;;;;29.54;26.33;102050.16;5211328;28;20088;-74
2022/05/14 11:45:53;;;;;;;15.98;5.88;;;;;;;29.63;25.87;102051.75;5210917;28;20053;-77
2022/05/14 11:48:30;;;;;;;19.38;6.05;;;;;;;29.80;25.39;102051.50;5218686;28;20018;-78
2022/05/14 11:51:37;;;;;;;14.40;5.80;;;;;;;30.24;25.22;102052.34;5229881;28;20026;-78
2022/05/14 11:54:14;;;;;;;12.75;5.30;;;;;;;30.01;24.98;102049.81;5229919;28;20029;-79
2022/05/14 11:57:24;;;;;;;16.25;5.90;;;;;;;30.10;24.75;102042.44;5231778;28;20035;-79
2022/05/14 12:00:00;;;;;;;16.10;5.22;;;;;;;29.58;25.42;102048.75;5231334;28;20044;-79
2022/05/14 12:03:09;;;;;;;16.63;5.88;;;;;;;29.43;25.58;102054.22;5232213;28;20502;-79
2022/05/14 12:05:47;;;;;;;15.48;5.95;;;;;;;28.99;24.54;102059.47;5230784;28;20116;-78
2022/05/14 12:08:40;;;;;;;14.50;5.00;;;;;;;28.91;24.77;102048.72;5231245;28;20112;-78
2022/05/14 12:11:28;;;;;;;12.40;4.95;;;;;;;29.25;25.21;102043.81;5230065;28;20238;-78
2022/05/14 12:14:10;;;;;;;15.63;5.63;;;;;;;29.47;24.70;102042.00;5231541;28;20885;-79
2022/05/14 12:16:53;;;;;;;16.30;5.22;;;;;;;28.81;25.02;102043.63;5218886;28;20021;-78